Abbot Village, Maine
Current Conditions -  °F | °C
As of 1:32 AM on Thursday 27 Nov 2014 (Local Time) from KBGR Reporting Station
Moderate Snow Moderate Snow  
Wind Chill: 15°   Ceiling: 1000
Heat Index: 29°   Visibility: 0.5mi
Dew Point: 27°   Wind: 23mph
Humidity: 92%   Direction: 360°N
Pressure: 29.73"   Gusts: 32mph
Location:  45.19°N, 69.45°W
Report Text: KBGR 270632Z 36020G28KT 1/2SM R15/5000VP6000FT SN FZFG VV010 M02/M03 A2973 RMK AO2 PK WND 01030/0620 P0002 T10171028 $
Loading
Personal Weather Stations






























Interactive Weather Map New forecast layout! Learn more

10-Day Weather Forecast

Advertisements
Track Severe Weather on mobile